Главная страница
METAR-TAF:

METAR-TAF

Аэропорты :

Триполи, Ливия

широта: 32-54N, долгота: 13-17E, высота над уровнем моря: 11 м

Текущие метеонаблюдения

Эта сводка был подготовлена 26 минут назад, в 06:55 UTC
Ветер 5 Узел от восточно-северо-восточный
Температура 21°C
Влажность 69%
Давление 1018 hPa
Видимость: 6000 м
небольшая облачность на высоте 3000 фута

METAR: HLLM 230655Z 07005KT 6000 FEW030 21/15 Q1018

Время: 09:21 (07:21 UTC)

Прогноз

Эта сводка был подготовлена 8 часа и 21 минут назад, в 23:00 UTC
Прогноз действительный с 23-го 00 UTC до 23-го 24 UTC
Ветер 10 Узел от восточный
Видимость 10 км и более
Нет облачности ниже 1500 м, и нет кучево-дождевой облачности

TAF: HLLM 222300Z 2300/2324 09010KT CAVOK

Метеонаблюдения и прогнозы для более 4000 аэропортов (сводки METAR и TAF).

Имеющиеся станции представлены на карте желтыми и красными точками.

Чтобы увидеть название станции, наведите на нее мышь.

Затем щелкните, чтобы увидеть метеонаблюдения и метеопрогнозы.

Управление картой: чтобы увеличить масштаб, щелкните зеленые кнопки с черным крестиком; чтобы уменьшить масштаб, щелкните зеленую кнопку с тире; для просмотра соседних карт щелкайте зеленые стрелки.


METAR-TAF: